sensor_id;sensor_type;location;lat;lon;timestamp;temperature;humidity
20483;DHT22;10400;53.198;6.592;2023-04-16T00:00:11;9.00;99.90
20483;DHT22;10400;53.198;6.592;2023-04-16T00:02:37;9.00;99.90
20483;DHT22;10400;53.198;6.592;2023-04-16T00:05:03;9.00;99.90
20483;DHT22;10400;53.198;6.592;2023-04-16T00:07:29;8.90;99.90
20483;DHT22;10400;53.198;6.592;2023-04-16T00:09:54;8.90;99.90
20483;DHT22;10400;53.198;6.592;2023-04-16T00:12:20;8.80;99.90
20483;DHT22;10400;53.198;6.592;2023-04-16T00:14:46;8.90;99.90
20483;DHT22;10400;53.198;6.592;2023-04-16T00:17:12;8.90;99.90
20483;DHT22;10400;53.198;6.592;2023-04-16T00:19:37;8.90;99.90
20483;DHT22;10400;53.198;6.592;2023-04-16T00:22:03;8.90;99.90
20483;DHT22;10400;53.198;6.592;2023-04-16T00:24:28;8.90;99.90
20483;DHT22;10400;53.198;6.592;2023-04-16T00:26:54;8.90;99.90
20483;DHT22;10400;53.198;6.592;2023-04-16T00:29:20;8.80;99.90
20483;DHT22;10400;53.198;6.592;2023-04-16T00:31:46;8.90;99.90
20483;DHT22;10400;53.198;6.592;2023-04-16T00:34:12;8.90;99.90
20483;DHT22;10400;53.198;6.592;2023-04-16T00:36:37;8.90;99.90
20483;DHT22;10400;53.198;6.592;2023-04-16T00:39:03;8.80;99.90
20483;DHT22;10400;53.198;6.592;2023-04-16T00:41:29;8.80;99.90
20483;DHT22;10400;53.198;6.592;2023-04-16T00:43:54;8.80;99.90
20483;DHT22;10400;53.198;6.592;2023-04-16T00:46:22;8.90;99.90
20483;DHT22;10400;53.198;6.592;2023-04-16T00:48:48;8.80;99.90
20483;DHT22;10400;53.198;6.592;2023-04-16T00:51:18;8.80;99.90
20483;DHT22;10400;53.198;6.592;2023-04-16T00:53:45;8.90;99.90
20483;DHT22;10400;53.198;6.592;2023-04-16T00:56:12;8.80;99.90
20483;DHT22;10400;53.198;6.592;2023-04-16T00:58:37;8.80;99.90
20483;DHT22;10400;53.198;6.592;2023-04-16T01:01:04;8.80;99.90
20483;DHT22;10400;53.198;6.592;2023-04-16T01:03:42;8.80;99.90
20483;DHT22;10400;53.198;6.592;2023-04-16T01:06:08;8.80;99.90
20483;DHT22;10400;53.198;6.592;2023-04-16T01:08:34;8.80;99.90
20483;DHT22;10400;53.198;6.592;2023-04-16T01:11:00;8.80;99.90
20483;DHT22;10400;53.198;6.592;2023-04-16T01:13:26;8.80;99.90
20483;DHT22;10400;53.198;6.592;2023-04-16T01:15:52;8.80;99.90
20483;DHT22;10400;53.198;6.592;2023-04-16T01:18:19;8.90;99.90
20483;DHT22;10400;53.198;6.592;2023-04-16T01:20:46;8.80;99.90
20483;DHT22;10400;53.198;6.592;2023-04-16T01:23:12;8.80;99.90
20483;DHT22;10400;53.198;6.592;2023-04-16T01:25:38;8.80;99.90
20483;DHT22;10400;53.198;6.592;2023-04-16T01:28:04;8.70;99.90
20483;DHT22;10400;53.198;6.592;2023-04-16T01:30:30;8.80;99.90
20483;DHT22;10400;53.198;6.592;2023-04-16T01:32:56;8.80;99.90
20483;DHT22;10400;53.198;6.592;2023-04-16T01:35:23;8.80;99.90
20483;DHT22;10400;53.198;6.592;2023-04-16T01:37:49;8.80;99.90
20483;DHT22;10400;53.198;6.592;2023-04-16T01:40:15;8.70;99.90
20483;DHT22;10400;53.198;6.592;2023-04-16T01:42:41;8.70;99.90
20483;DHT22;10400;53.198;6.592;2023-04-16T01:45:07;8.70;99.90
20483;DHT22;10400;53.198;6.592;2023-04-16T01:47:33;8.70;99.90
20483;DHT22;10400;53.198;6.592;2023-04-16T01:49:59;8.80;99.90
20483;DHT22;10400;53.198;6.592;2023-04-16T01:52:25;8.80;99.90
20483;DHT22;10400;53.198;6.592;2023-04-16T01:54:51;8.80;99.90
20483;DHT22;10400;53.198;6.592;2023-04-16T01:57:16;8.80;99.90
20483;DHT22;10400;53.198;6.592;2023-04-16T01:59:42;8.80;99.90
20483;DHT22;10400;53.198;6.592;2023-04-16T02:02:12;8.70;99.90
20483;DHT22;10400;53.198;6.592;2023-04-16T02:04:40;8.70;99.90
20483;DHT22;10400;53.198;6.592;2023-04-16T02:07:06;8.70;99.90
20483;DHT22;10400;53.198;6.592;2023-04-16T02:09:36;8.70;99.90
20483;DHT22;10400;53.198;6.592;2023-04-16T02:12:03;8.70;99.90
20483;DHT22;10400;53.198;6.592;2023-04-16T02:14:29;8.70;99.90
20483;DHT22;10400;53.198;6.592;2023-04-16T02:16:55;8.70;99.90
20483;DHT22;10400;53.198;6.592;2023-04-16T02:19:21;8.70;99.90
20483;DHT22;10400;53.198;6.592;2023-04-16T02:21:47;8.70;99.90
20483;DHT22;10400;53.198;6.592;2023-04-16T02:24:13;8.80;99.90
20483;DHT22;10400;53.198;6.592;2023-04-16T02:26:39;8.80;99.90
20483;DHT22;10400;53.198;6.592;2023-04-16T02:29:05;8.80;99.90
20483;DHT22;10400;53.198;6.592;2023-04-16T02:31:31;8.90;99.90
20483;DHT22;10400;53.198;6.592;2023-04-16T02:33:56;8.90;99.90
20483;DHT22;10400;53.198;6.592;2023-04-16T02:36:22;8.90;99.90
20483;DHT22;10400;53.198;6.592;2023-04-16T02:38:48;8.90;99.90
20483;DHT22;10400;53.198;6.592;2023-04-16T02:41:13;8.90;99.90
20483;DHT22;10400;53.198;6.592;2023-04-16T02:43:39;8.90;99.90
20483;DHT22;10400;53.198;6.592;2023-04-16T02:46:05;8.90;99.90
20483;DHT22;10400;53.198;6.592;2023-04-16T02:48:31;8.90;99.90
20483;DHT22;10400;53.198;6.592;2023-04-16T02:50:57;8.80;99.90
20483;DHT22;10400;53.198;6.592;2023-04-16T02:53:22;8.80;99.90
20483;DHT22;10400;53.198;6.592;2023-04-16T02:55:49;8.80;99.90
20483;DHT22;10400;53.198;6.592;2023-04-16T02:58:17;8.90;99.90
20483;DHT22;10400;53.198;6.592;2023-04-16T03:00:43;8.80;99.90
20483;DHT22;10400;53.198;6.592;2023-04-16T03:03:09;8.70;99.90
20483;DHT22;10400;53.198;6.592;2023-04-16T03:05:34;8.70;99.90
20483;DHT22;10400;53.198;6.592;2023-04-16T03:08:00;8.70;99.90
20483;DHT22;10400;53.198;6.592;2023-04-16T03:10:26;8.70;99.90
20483;DHT22;10400;53.198;6.592;2023-04-16T03:12:51;8.60;99.90
20483;DHT22;10400;53.198;6.592;2023-04-16T03:15:17;8.60;99.90
20483;DHT22;10400;53.198;6.592;2023-04-16T03:17:42;8.60;99.90
20483;DHT22;10400;53.198;6.592;2023-04-16T03:20:08;8.60;99.90
20483;DHT22;10400;53.198;6.592;2023-04-16T03:22:34;8.60;99.90
20483;DHT22;10400;53.198;6.592;2023-04-16T03:25:00;8.60;99.90
20483;DHT22;10400;53.198;6.592;2023-04-16T03:27:25;8.60;99.90
20483;DHT22;10400;53.198;6.592;2023-04-16T03:29:51;8.60;99.90
20483;DHT22;10400;53.198;6.592;2023-04-16T03:32:17;8.60;99.90
20483;DHT22;10400;53.198;6.592;2023-04-16T03:34:42;8.50;99.90
20483;DHT22;10400;53.198;6.592;2023-04-16T03:37:08;8.60;99.90
20483;DHT22;10400;53.198;6.592;2023-04-16T03:39:36;8.70;99.90
20483;DHT22;10400;53.198;6.592;2023-04-16T03:42:02;8.60;99.90
20483;DHT22;10400;53.198;6.592;2023-04-16T03:44:28;8.70;99.90
20483;DHT22;10400;53.198;6.592;2023-04-16T03:46:53;8.70;99.90
20483;DHT22;10400;53.198;6.592;2023-04-16T03:49:19;8.70;99.90
20483;DHT22;10400;53.198;6.592;2023-04-16T03:51:45;8.60;99.90
20483;DHT22;10400;53.198;6.592;2023-04-16T03:54:11;8.70;99.90
20483;DHT22;10400;53.198;6.592;2023-04-16T03:56:37;8.70;99.90
20483;DHT22;10400;53.198;6.592;2023-04-16T03:59:04;8.60;99.90
20483;DHT22;10400;53.198;6.592;2023-04-16T04:01:29;8.60;99.90
20483;DHT22;10400;53.198;6.592;2023-04-16T04:03:55;8.60;99.90
20483;DHT22;10400;53.198;6.592;2023-04-16T04:06:21;8.60;99.90
20483;DHT22;10400;53.198;6.592;2023-04-16T04:08:46;8.60;99.90
20483;DHT22;10400;53.198;6.592;2023-04-16T04:11:12;8.60;99.90
20483;DHT22;10400;53.198;6.592;2023-04-16T04:13:37;8.70;99.90
20483;DHT22;10400;53.198;6.592;2023-04-16T04:16:04;8.70;99.90
20483;DHT22;10400;53.198;6.592;2023-04-16T04:18:30;8.70;99.90
20483;DHT22;10400;53.198;6.592;2023-04-16T04:20:55;8.70;99.90
20483;DHT22;10400;53.198;6.592;2023-04-16T04:23:21;8.70;99.90
20483;DHT22;10400;53.198;6.592;2023-04-16T04:25:47;8.70;99.90
20483;DHT22;10400;53.198;6.592;2023-04-16T04:28:12;8.70;99.90
20483;DHT22;10400;53.198;6.592;2023-04-16T04:30:38;8.70;99.90
20483;DHT22;10400;53.198;6.592;2023-04-16T04:33:03;8.60;99.90
20483;DHT22;10400;53.198;6.592;2023-04-16T04:35:29;8.60;99.90
20483;DHT22;10400;53.198;6.592;2023-04-16T04:37:55;8.60;99.90
20483;DHT22;10400;53.198;6.592;2023-04-16T04:40:21;8.50;99.90
20483;DHT22;10400;53.198;6.592;2023-04-16T04:42:46;8.60;99.90
20483;DHT22;10400;53.198;6.592;2023-04-16T04:45:12;8.50;99.90
20483;DHT22;10400;53.198;6.592;2023-04-16T04:47:37;8.50;99.90
20483;DHT22;10400;53.198;6.592;2023-04-16T04:50:03;8.50;99.90
20483;DHT22;10400;53.198;6.592;2023-04-16T04:52:29;8.50;99.90
20483;DHT22;10400;53.198;6.592;2023-04-16T04:54:55;8.50;99.90
20483;DHT22;10400;53.198;6.592;2023-04-16T04:57:21;8.50;99.90
20483;DHT22;10400;53.198;6.592;2023-04-16T04:59:47;8.60;99.90
20483;DHT22;10400;53.198;6.592;2023-04-16T05:02:12;8.50;99.90
20483;DHT22;10400;53.198;6.592;2023-04-16T05:04:38;8.50;99.90
20483;DHT22;10400;53.198;6.592;2023-04-16T05:07:03;8.40;99.90
20483;DHT22;10400;53.198;6.592;2023-04-16T05:09:29;8.50;99.90
20483;DHT22;10400;53.198;6.592;2023-04-16T05:11:55;8.50;99.90
20483;DHT22;10400;53.198;6.592;2023-04-16T05:14:22;8.50;99.90
20483;DHT22;10400;53.198;6.592;2023-04-16T05:16:47;8.60;99.90
20483;DHT22;10400;53.198;6.592;2023-04-16T05:19:13;8.60;99.90
20483;DHT22;10400;53.198;6.592;2023-04-16T05:21:39;8.60;99.90
20483;DHT22;10400;53.198;6.592;2023-04-16T05:24:05;8.60;99.90
20483;DHT22;10400;53.198;6.592;2023-04-16T05:26:30;8.50;99.90
20483;DHT22;10400;53.198;6.592;2023-04-16T05:28:56;8.50;99.90
20483;DHT22;10400;53.198;6.592;2023-04-16T05:31:22;8.50;99.90
20483;DHT22;10400;53.198;6.592;2023-04-16T05:33:47;8.50;99.90
20483;DHT22;10400;53.198;6.592;2023-04-16T05:36:13;8.60;99.90
20483;DHT22;10400;53.198;6.592;2023-04-16T05:38:38;8.60;99.90
20483;DHT22;10400;53.198;6.592;2023-04-16T05:41:04;8.70;99.90
20483;DHT22;10400;53.198;6.592;2023-04-16T05:43:30;8.60;99.90
20483;DHT22;10400;53.198;6.592;2023-04-16T05:45:56;8.70;99.90
20483;DHT22;10400;53.198;6.592;2023-04-16T05:48:21;8.70;99.90
20483;DHT22;10400;53.198;6.592;2023-04-16T05:50:48;8.70;99.90
20483;DHT22;10400;53.198;6.592;2023-04-16T05:53:14;8.60;99.90
20483;DHT22;10400;53.198;6.592;2023-04-16T05:55:40;8.60;99.90
20483;DHT22;10400;53.198;6.592;2023-04-16T05:58:06;8.70;99.90
20483;DHT22;10400;53.198;6.592;2023-04-16T06:00:32;8.60;99.90
20483;DHT22;10400;53.198;6.592;2023-04-16T06:02:57;8.60;99.90
20483;DHT22;10400;53.198;6.592;2023-04-16T06:05:24;8.60;99.90
20483;DHT22;10400;53.198;6.592;2023-04-16T06:07:51;8.60;99.90
20483;DHT22;10400;53.198;6.592;2023-04-16T06:10:17;8.70;99.90
20483;DHT22;10400;53.198;6.592;2023-04-16T06:12:42;8.70;99.90
20483;DHT22;10400;53.198;6.592;2023-04-16T06:15:08;8.80;99.90
20483;DHT22;10400;53.198;6.592;2023-04-16T06:17:34;8.80;99.90
20483;DHT22;10400;53.198;6.592;2023-04-16T06:20:00;8.80;99.90
20483;DHT22;10400;53.198;6.592;2023-04-16T06:22:26;8.90;99.90
20483;DHT22;10400;53.198;6.592;2023-04-16T06:24:52;8.80;99.90
20483;DHT22;10400;53.198;6.592;2023-04-16T06:27:17;8.90;99.90
20483;DHT22;10400;53.198;6.592;2023-04-16T06:29:43;8.80;99.90
20483;DHT22;10400;53.198;6.592;2023-04-16T06:32:09;8.80;99.90
20483;DHT22;10400;53.198;6.592;2023-04-16T06:34:36;8.90;99.90
20483;DHT22;10400;53.198;6.592;2023-04-16T06:37:01;8.90;99.90
20483;DHT22;10400;53.198;6.592;2023-04-16T06:39:27;9.00;99.90
20483;DHT22;10400;53.198;6.592;2023-04-16T06:41:52;9.00;99.90
20483;DHT22;10400;53.198;6.592;2023-04-16T06:44:18;9.10;99.90
20483;DHT22;10400;53.198;6.592;2023-04-16T06:46:44;9.20;99.90
20483;DHT22;10400;53.198;6.592;2023-04-16T06:49:09;9.20;99.90
20483;DHT22;10400;53.198;6.592;2023-04-16T06:51:35;9.30;99.90
20483;DHT22;10400;53.198;6.592;2023-04-16T06:54:01;9.30;99.90
20483;DHT22;10400;53.198;6.592;2023-04-16T06:56:26;9.30;99.90
20483;DHT22;10400;53.198;6.592;2023-04-16T06:58:52;9.40;99.90
20483;DHT22;10400;53.198;6.592;2023-04-16T07:01:18;9.50;99.90
20483;DHT22;10400;53.198;6.592;2023-04-16T07:03:43;9.60;99.90
20483;DHT22;10400;53.198;6.592;2023-04-16T07:06:09;9.60;99.90
20483;DHT22;10400;53.198;6.592;2023-04-16T07:08:35;9.60;99.90
20483;DHT22;10400;53.198;6.592;2023-04-16T07:11:01;9.80;99.90
20483;DHT22;10400;53.198;6.592;2023-04-16T07:13:26;9.90;99.90
20483;DHT22;10400;53.198;6.592;2023-04-16T07:15:52;9.90;99.90
20483;DHT22;10400;53.198;6.592;2023-04-16T07:18:18;9.90;99.90
20483;DHT22;10400;53.198;6.592;2023-04-16T07:20:43;9.90;99.90
20483;DHT22;10400;53.198;6.592;2023-04-16T07:23:09;9.80;99.90
20483;DHT22;10400;53.198;6.592;2023-04-16T07:25:35;9.80;99.90
20483;DHT22;10400;53.198;6.592;2023-04-16T07:28:01;9.80;99.90
20483;DHT22;10400;53.198;6.592;2023-04-16T07:30:27;9.80;99.90
20483;DHT22;10400;53.198;6.592;2023-04-16T07:32:59;9.80;99.90
20483;DHT22;10400;53.198;6.592;2023-04-16T07:35:24;9.80;99.90
20483;DHT22;10400;53.198;6.592;2023-04-16T07:37:50;9.90;99.90
20483;DHT22;10400;53.198;6.592;2023-04-16T07:40:16;10.00;99.90
20483;DHT22;10400;53.198;6.592;2023-04-16T07:42:42;9.90;99.90
20483;DHT22;10400;53.198;6.592;2023-04-16T07:45:08;10.00;99.90
20483;DHT22;10400;53.198;6.592;2023-04-16T07:47:33;10.10;99.90
20483;DHT22;10400;53.198;6.592;2023-04-16T07:49:59;10.20;99.90
20483;DHT22;10400;53.198;6.592;2023-04-16T07:52:25;10.20;99.90
20483;DHT22;10400;53.198;6.592;2023-04-16T07:54:51;10.20;99.90
20483;DHT22;10400;53.198;6.592;2023-04-16T07:57:16;10.20;99.90
20483;DHT22;10400;53.198;6.592;2023-04-16T07:59:42;10.20;99.90
20483;DHT22;10400;53.198;6.592;2023-04-16T08:02:11;10.30;99.90
20483;DHT22;10400;53.198;6.592;2023-04-16T08:04:39;10.40;99.90
20483;DHT22;10400;53.198;6.592;2023-04-16T08:07:05;10.50;99.90
20483;DHT22;10400;53.198;6.592;2023-04-16T08:09:30;10.50;99.90
20483;DHT22;10400;53.198;6.592;2023-04-16T08:11:56;10.40;99.90
20483;DHT22;10400;53.198;6.592;2023-04-16T08:14:22;10.40;99.90
20483;DHT22;10400;53.198;6.592;2023-04-16T08:16:48;10.40;99.90
20483;DHT22;10400;53.198;6.592;2023-04-16T08:19:13;10.50;99.90
20483;DHT22;10400;53.198;6.592;2023-04-16T08:21:39;10.60;99.90
20483;DHT22;10400;53.198;6.592;2023-04-16T08:24:05;10.80;99.90
20483;DHT22;10400;53.198;6.592;2023-04-16T08:26:30;10.90;99.90
20483;DHT22;10400;53.198;6.592;2023-04-16T08:28:56;11.10;99.90
20483;DHT22;10400;53.198;6.592;2023-04-16T08:31:22;11.30;99.90
20483;DHT22;10400;53.198;6.592;2023-04-16T08:33:47;11.40;99.90
20483;DHT22;10400;53.198;6.592;2023-04-16T08:36:13;11.30;99.90
20483;DHT22;10400;53.198;6.592;2023-04-16T08:38:38;11.50;99.90
20483;DHT22;10400;53.198;6.592;2023-04-16T08:41:05;11.60;99.90
20483;DHT22;10400;53.198;6.592;2023-04-16T08:43:33;11.70;99.90
20483;DHT22;10400;53.198;6.592;2023-04-16T08:46:00;11.70;99.90
20483;DHT22;10400;53.198;6.592;2023-04-16T08:48:32;11.80;99.90
20483;DHT22;10400;53.198;6.592;2023-04-16T08:50:59;12.00;99.90
20483;DHT22;10400;53.198;6.592;2023-04-16T08:53:35;12.10;99.90
20483;DHT22;10400;53.198;6.592;2023-04-16T08:56:09;12.10;99.90
20483;DHT22;10400;53.198;6.592;2023-04-16T08:58:36;11.90;99.90
20483;DHT22;10400;53.198;6.592;2023-04-16T09:01:03;12.00;99.90
20483;DHT22;10400;53.198;6.592;2023-04-16T09:03:30;12.20;99.90
20483;DHT22;10400;53.198;6.592;2023-04-16T09:05:57;12.20;99.90
20483;DHT22;10400;53.198;6.592;2023-04-16T09:08:28;12.40;99.90
20483;DHT22;10400;53.198;6.592;2023-04-16T09:10:55;12.70;99.90
20483;DHT22;10400;53.198;6.592;2023-04-16T09:13:21;12.70;99.90
20483;DHT22;10400;53.198;6.592;2023-04-16T09:15:51;12.90;99.90
20483;DHT22;10400;53.198;6.592;2023-04-16T09:18:17;13.00;99.90
20483;DHT22;10400;53.198;6.592;2023-04-16T09:20:45;13.00;99.90
20483;DHT22;10400;53.198;6.592;2023-04-16T09:23:10;13.10;98.70
20483;DHT22;10400;53.198;6.592;2023-04-16T09:25:36;12.90;98.70
20483;DHT22;10400;53.198;6.592;2023-04-16T09:28:03;12.90;98.00
20483;DHT22;10400;53.198;6.592;2023-04-16T09:30:28;12.80;95.10
20483;DHT22;10400;53.198;6.592;2023-04-16T09:33:15;12.80;99.90
20483;DHT22;10400;53.198;6.592;2023-04-16T09:35:49;13.00;99.90
20483;DHT22;10400;53.198;6.592;2023-04-16T09:38:15;13.30;98.30
20483;DHT22;10400;53.198;6.592;2023-04-16T09:40:41;13.20;77.60
20483;DHT22;10400;53.198;6.592;2023-04-16T09:43:14;13.30;80.30
20483;DHT22;10400;53.198;6.592;2023-04-16T09:48:15;13.40;42.70
20483;DHT22;10400;53.198;6.592;2023-04-16T09:50:49;13.50;29.70
20483;DHT22;10400;53.198;6.592;2023-04-16T09:53:26;13.50;8.50
20483;DHT22;10400;53.198;6.592;2023-04-16T09:55:58;13.60;27.20
20483;DHT22;10400;53.198;6.592;2023-04-16T09:58:24;13.50;1.00
20483;DHT22;10400;53.198;6.592;2023-04-16T10:01:05;13.70;1.00
20483;DHT22;10400;53.198;6.592;2023-04-16T10:03:33;13.70;1.00
20483;DHT22;10400;53.198;6.592;2023-04-16T10:11:15;13.90;1.00
20483;DHT22;10400;53.198;6.592;2023-04-16T10:13:40;14.00;1.00
20483;DHT22;10400;53.198;6.592;2023-04-16T10:16:07;13.90;1.00
20483;DHT22;10400;53.198;6.592;2023-04-16T10:18:39;13.80;1.00
20483;DHT22;10400;53.198;6.592;2023-04-16T10:21:04;13.90;1.00
20483;DHT22;10400;53.198;6.592;2023-04-16T10:23:34;13.70;1.00
20483;DHT22;10400;53.198;6.592;2023-04-16T10:26:01;13.70;1.00
20483;DHT22;10400;53.198;6.592;2023-04-16T10:28:27;13.80;1.00
20483;DHT22;10400;53.198;6.592;2023-04-16T10:30:55;14.10;1.00
20483;DHT22;10400;53.198;6.592;2023-04-16T10:33:24;14.30;1.00
20483;DHT22;10400;53.198;6.592;2023-04-16T10:35:51;14.10;1.00
20483;DHT22;10400;53.198;6.592;2023-04-16T10:38:26;14.30;1.00
20483;DHT22;10400;53.198;6.592;2023-04-16T10:40:59;14.00;1.00
20483;DHT22;10400;53.198;6.592;2023-04-16T10:43:27;14.00;1.00
20483;DHT22;10400;53.198;6.592;2023-04-16T10:45:54;14.10;1.00
20483;DHT22;10400;53.198;6.592;2023-04-16T10:48:20;14.20;1.00
20483;DHT22;10400;53.198;6.592;2023-04-16T10:50:54;14.30;1.00
20483;DHT22;10400;53.198;6.592;2023-04-16T10:53:25;14.00;1.00
20483;DHT22;10400;53.198;6.592;2023-04-16T10:58:34;14.00;1.00
20483;DHT22;10400;53.198;6.592;2023-04-16T11:01:05;14.10;1.00
20483;DHT22;10400;53.198;6.592;2023-04-16T11:03:31;14.00;1.00
20483;DHT22;10400;53.198;6.592;2023-04-16T11:06:14;14.10;1.00
20483;DHT22;10400;53.198;6.592;2023-04-16T11:08:41;14.30;1.00
20483;DHT22;10400;53.198;6.592;2023-04-16T11:11:08;14.00;1.00
20483;DHT22;10400;53.198;6.592;2023-04-16T11:13:36;13.80;1.00
20483;DHT22;10400;53.198;6.592;2023-04-16T11:16:03;13.60;1.00
20483;DHT22;10400;53.198;6.592;2023-04-16T11:18:28;13.50;3.10
20483;DHT22;10400;53.198;6.592;2023-04-16T11:20:54;13.70;1.00
20483;DHT22;10400;53.198;6.592;2023-04-16T11:23:20;13.80;5.60
20483;DHT22;10400;53.198;6.592;2023-04-16T11:25:45;13.90;1.00
20483;DHT22;10400;53.198;6.592;2023-04-16T11:28:12;13.90;1.00
20483;DHT22;10400;53.198;6.592;2023-04-16T11:30:38;13.80;1.00
20483;DHT22;10400;53.198;6.592;2023-04-16T11:33:07;14.20;1.00
20483;DHT22;10400;53.198;6.592;2023-04-16T11:35:33;14.00;1.00
20483;DHT22;10400;53.198;6.592;2023-04-16T11:37:59;14.10;1.00
20483;DHT22;10400;53.198;6.592;2023-04-16T11:40:28;14.00;1.00
20483;DHT22;10400;53.198;6.592;2023-04-16T11:42:54;13.90;1.00
20483;DHT22;10400;53.198;6.592;2023-04-16T11:45:20;13.80;1.00
20483;DHT22;10400;53.198;6.592;2023-04-16T11:47:47;13.80;1.00
20483;DHT22;10400;53.198;6.592;2023-04-16T11:50:23;14.00;1.00
20483;DHT22;10400;53.198;6.592;2023-04-16T11:52:51;14.40;1.00
20483;DHT22;10400;53.198;6.592;2023-04-16T11:55:17;14.50;1.00
20483;DHT22;10400;53.198;6.592;2023-04-16T11:57:43;14.40;1.00
20483;DHT22;10400;53.198;6.592;2023-04-16T12:00:11;13.90;1.00
20483;DHT22;10400;53.198;6.592;2023-04-16T12:08:02;13.80;1.00
20483;DHT22;10400;53.198;6.592;2023-04-16T12:10:31;13.70;1.00
20483;DHT22;10400;53.198;6.592;2023-04-16T12:13:10;13.90;1.00
20483;DHT22;10400;53.198;6.592;2023-04-16T12:15:49;13.80;1.00
20483;DHT22;10400;53.198;6.592;2023-04-16T12:18:16;13.70;1.00
20483;DHT22;10400;53.198;6.592;2023-04-16T12:20:44;13.90;1.00
20483;DHT22;10400;53.198;6.592;2023-04-16T12:23:21;14.00;1.00
20483;DHT22;10400;53.198;6.592;2023-04-16T12:25:47;14.20;1.00
20483;DHT22;10400;53.198;6.592;2023-04-16T12:28:14;14.10;1.00
20483;DHT22;10400;53.198;6.592;2023-04-16T12:30:50;14.30;1.00
20483;DHT22;10400;53.198;6.592;2023-04-16T12:33:18;14.40;1.00
20483;DHT22;10400;53.198;6.592;2023-04-16T12:35:44;14.40;1.00
20483;DHT22;10400;53.198;6.592;2023-04-16T12:38:10;14.40;1.00
20483;DHT22;10400;53.198;6.592;2023-04-16T12:40:36;14.20;1.00
20483;DHT22;10400;53.198;6.592;2023-04-16T12:43:02;14.30;1.00
20483;DHT22;10400;53.198;6.592;2023-04-16T12:45:27;14.30;1.00
20483;DHT22;10400;53.198;6.592;2023-04-16T12:47:53;14.30;1.00
20483;DHT22;10400;53.198;6.592;2023-04-16T12:50:20;14.30;1.00
20483;DHT22;10400;53.198;6.592;2023-04-16T12:52:46;14.40;1.00
20483;DHT22;10400;53.198;6.592;2023-04-16T12:55:12;14.50;1.00
20483;DHT22;10400;53.198;6.592;2023-04-16T12:57:38;14.30;1.00
20483;DHT22;10400;53.198;6.592;2023-04-16T13:00:04;14.00;1.00
20483;DHT22;10400;53.198;6.592;2023-04-16T13:02:31;14.20;1.00
20483;DHT22;10400;53.198;6.592;2023-04-16T13:04:57;14.20;1.00
20483;DHT22;10400;53.198;6.592;2023-04-16T13:07:23;14.20;1.00
20483;DHT22;10400;53.198;6.592;2023-04-16T13:09:51;14.30;1.00
20483;DHT22;10400;53.198;6.592;2023-04-16T13:12:17;14.50;1.00
20483;DHT22;10400;53.198;6.592;2023-04-16T13:14:42;14.30;1.00
20483;DHT22;10400;53.198;6.592;2023-04-16T13:17:08;14.20;1.00
20483;DHT22;10400;53.198;6.592;2023-04-16T13:19:34;14.30;1.00
20483;DHT22;10400;53.198;6.592;2023-04-16T13:21:59;14.10;1.00
20483;DHT22;10400;53.198;6.592;2023-04-16T13:24:25;14.30;1.00
20483;DHT22;10400;53.198;6.592;2023-04-16T13:26:51;14.40;1.00
20483;DHT22;10400;53.198;6.592;2023-04-16T13:29:17;13.90;1.00
20483;DHT22;10400;53.198;6.592;2023-04-16T13:31:43;13.90;1.00
20483;DHT22;10400;53.198;6.592;2023-04-16T13:34:09;14.10;1.00
20483;DHT22;10400;53.198;6.592;2023-04-16T13:36:35;14.10;1.00
20483;DHT22;10400;53.198;6.592;2023-04-16T13:39:00;14.10;1.00
20483;DHT22;10400;53.198;6.592;2023-04-16T13:41:29;14.20;1.00
20483;DHT22;10400;53.198;6.592;2023-04-16T13:43:55;14.40;1.00
20483;DHT22;10400;53.198;6.592;2023-04-16T13:46:20;14.60;1.00
20483;DHT22;10400;53.198;6.592;2023-04-16T13:48:46;14.60;1.00
20483;DHT22;10400;53.198;6.592;2023-04-16T13:51:11;14.70;1.00
20483;DHT22;10400;53.198;6.592;2023-04-16T13:53:40;14.60;1.00
20483;DHT22;10400;53.198;6.592;2023-04-16T13:56:05;14.70;1.00
20483;DHT22;10400;53.198;6.592;2023-04-16T13:58:32;14.70;1.00
20483;DHT22;10400;53.198;6.592;2023-04-16T14:00:58;14.70;1.00
20483;DHT22;10400;53.198;6.592;2023-04-16T14:03:24;14.80;1.00
20483;DHT22;10400;53.198;6.592;2023-04-16T14:05:51;14.90;1.00
20483;DHT22;10400;53.198;6.592;2023-04-16T14:08:16;14.80;1.00
20483;DHT22;10400;53.198;6.592;2023-04-16T14:10:42;14.90;1.00
20483;DHT22;10400;53.198;6.592;2023-04-16T14:13:08;14.50;1.00
20483;DHT22;10400;53.198;6.592;2023-04-16T14:15:33;14.30;1.00
20483;DHT22;10400;53.198;6.592;2023-04-16T14:17:59;14.40;1.00
20483;DHT22;10400;53.198;6.592;2023-04-16T14:20:25;14.30;1.00
20483;DHT22;10400;53.198;6.592;2023-04-16T14:22:51;14.30;1.00
20483;DHT22;10400;53.198;6.592;2023-04-16T14:25:17;14.30;1.00
20483;DHT22;10400;53.198;6.592;2023-04-16T14:27:42;14.30;1.00
20483;DHT22;10400;53.198;6.592;2023-04-16T14:30:08;14.20;1.00
20483;DHT22;10400;53.198;6.592;2023-04-16T14:32:34;14.20;1.00
20483;DHT22;10400;53.198;6.592;2023-04-16T14:35:00;14.40;1.00
20483;DHT22;10400;53.198;6.592;2023-04-16T14:37:26;14.60;1.00
20483;DHT22;10400;53.198;6.592;2023-04-16T14:39:52;14.60;1.00
20483;DHT22;10400;53.198;6.592;2023-04-16T14:42:18;14.70;1.00
20483;DHT22;10400;53.198;6.592;2023-04-16T14:44:44;14.60;1.00
20483;DHT22;10400;53.198;6.592;2023-04-16T14:47:09;14.60;1.00
20483;DHT22;10400;53.198;6.592;2023-04-16T14:49:35;14.50;1.00
20483;DHT22;10400;53.198;6.592;2023-04-16T14:52:01;14.50;1.00
20483;DHT22;10400;53.198;6.592;2023-04-16T14:54:30;14.50;1.00
20483;DHT22;10400;53.198;6.592;2023-04-16T14:56:57;14.40;1.00
20483;DHT22;10400;53.198;6.592;2023-04-16T14:59:22;14.30;1.00
20483;DHT22;10400;53.198;6.592;2023-04-16T15:01:48;14.60;1.00
20483;DHT22;10400;53.198;6.592;2023-04-16T15:04:14;14.70;1.00
20483;DHT22;10400;53.198;6.592;2023-04-16T15:06:40;14.60;1.00
20483;DHT22;10400;53.198;6.592;2023-04-16T15:09:05;14.70;1.00
20483;DHT22;10400;53.198;6.592;2023-04-16T15:11:32;14.80;1.00
20483;DHT22;10400;53.198;6.592;2023-04-16T15:13:58;15.10;1.00
20483;DHT22;10400;53.198;6.592;2023-04-16T15:16:24;15.00;1.00
20483;DHT22;10400;53.198;6.592;2023-04-16T15:18:49;14.60;1.00
20483;DHT22;10400;53.198;6.592;2023-04-16T15:21:15;14.40;1.00
20483;DHT22;10400;53.198;6.592;2023-04-16T15:23:41;14.30;1.00
20483;DHT22;10400;53.198;6.592;2023-04-16T15:26:07;14.10;1.00
20483;DHT22;10400;53.198;6.592;2023-04-16T15:28:32;14.00;1.00
20483;DHT22;10400;53.198;6.592;2023-04-16T15:30:58;14.00;1.00
20483;DHT22;10400;53.198;6.592;2023-04-16T15:33:24;14.10;1.00
20483;DHT22;10400;53.198;6.592;2023-04-16T15:35:51;14.10;1.00
20483;DHT22;10400;53.198;6.592;2023-04-16T15:38:17;13.70;1.00
20483;DHT22;10400;53.198;6.592;2023-04-16T15:40:43;13.70;1.00
20483;DHT22;10400;53.198;6.592;2023-04-16T15:43:08;13.60;1.00
20483;DHT22;10400;53.198;6.592;2023-04-16T15:45:34;13.60;1.00
20483;DHT22;10400;53.198;6.592;2023-04-16T15:48:00;13.70;1.00
20483;DHT22;10400;53.198;6.592;2023-04-16T15:50:25;13.50;1.00
20483;DHT22;10400;53.198;6.592;2023-04-16T15:52:52;13.20;1.00
20483;DHT22;10400;53.198;6.592;2023-04-16T15:55:17;13.20;1.00